createdAt,value
2019-04-11T00:00:53.958Z,10.30
2019-04-11T00:03:23.248Z,10.77
2019-04-11T00:05:52.871Z,10.13
2019-04-11T00:08:22.124Z,9.30
2019-04-11T00:10:51.332Z,10.25
2019-04-11T00:13:25.195Z,11.18
2019-04-11T00:15:51.453Z,11.33
2019-04-11T00:18:20.865Z,11.40
2019-04-11T00:20:50.617Z,11.65
2019-04-11T00:23:19.927Z,9.85
2019-04-11T00:25:49.602Z,10.23
2019-04-11T00:28:18.803Z,11.07
2019-04-11T00:30:48.348Z,10.88
2019-04-11T00:33:18.197Z,9.95
2019-04-11T00:35:48.075Z,12.90
2019-04-11T00:38:18.041Z,10.55
2019-04-11T00:40:47.308Z,10.95
2019-04-11T00:43:29.858Z,12.47
2019-04-11T00:45:47.999Z,10.63
2019-04-11T00:48:17.627Z,10.93
2019-04-11T00:50:47.614Z,10.48
2019-04-11T00:53:18.883Z,10.28
2019-04-11T00:55:48.124Z,10.43
2019-04-11T00:58:17.368Z,11.18
2019-04-11T01:00:47.121Z,10.23
2019-04-11T01:03:16.324Z,12.07
2019-04-11T01:05:47.751Z,9.60
2019-04-11T01:08:17.722Z,10.97
2019-04-11T01:10:47.818Z,12.78
2019-04-11T01:13:17.588Z,11.43
2019-04-11T01:15:54.643Z,11.50
2019-04-11T01:18:23.851Z,10.33
2019-04-11T01:20:53.690Z,12.73
2019-04-11T01:23:22.861Z,10.88
2019-04-11T01:25:53.504Z,11.12
2019-04-11T01:28:22.734Z,12.05
2019-04-11T01:31:01.064Z,12.35
2019-04-11T01:33:30.341Z,11.28
2019-04-11T01:35:59.545Z,12.98
2019-04-11T01:38:30.459Z,12.30
2019-04-11T01:41:00.286Z,11.43
2019-04-11T01:43:30.674Z,13.15
2019-04-11T01:46:00.138Z,11.40
2019-04-11T01:48:41.719Z,11.48
2019-04-11T01:51:11.630Z,11.43
2019-04-11T01:53:42.284Z,12.70
2019-04-11T01:56:13.425Z,12.98
2019-04-11T01:58:42.760Z,12.97
2019-04-11T02:01:25.081Z,12.13
2019-04-11T02:04:13.989Z,11.88
2019-04-11T02:06:43.530Z,13.32
2019-04-11T02:09:15.737Z,12.15
2019-04-11T02:11:45.729Z,10.60
2019-04-11T02:14:16.925Z,11.83
2019-04-11T02:16:45.827Z,12.18
2019-04-11T02:19:16.162Z,14.85
2019-04-11T02:21:46.226Z,13.85
2019-04-11T02:24:22.139Z,13.48
2019-04-11T02:27:16.838Z,12.98
2019-04-11T02:29:46.763Z,13.40
2019-04-11T02:32:15.970Z,12.55
2019-04-11T02:34:46.093Z,14.70
2019-04-11T02:37:17.328Z,12.53
2019-04-11T02:39:47.274Z,15.23
2019-04-11T02:42:17.104Z,13.03
2019-04-11T02:45:03.473Z,14.53
2019-04-11T02:47:22.894Z,13.47
2019-04-11T02:49:49.600Z,12.80
2019-04-11T02:52:19.558Z,13.97
2019-04-11T02:54:49.305Z,14.60
2019-04-11T02:57:18.919Z,14.90
2019-04-11T02:59:49.053Z,13.47
2019-04-11T03:02:19.549Z,14.03
2019-04-11T03:04:50.936Z,18.83
2019-04-11T03:07:22.723Z,13.13
2019-04-11T03:09:53.569Z,13.37
2019-04-11T03:12:24.061Z,17.67
2019-04-11T03:15:13.023Z,15.87
2019-04-11T03:17:33.114Z,15.30
2019-04-11T03:20:09.420Z,18.30
2019-04-11T03:22:29.907Z,14.37
2019-04-11T03:25:00.310Z,13.93
2019-04-11T03:27:30.524Z,17.73
2019-04-11T03:30:00.751Z,16.37
2019-04-11T03:33:16.646Z,16.10
2019-04-11T03:36:01.263Z,15.57
2019-04-11T03:40:27.072Z,16.87
2019-04-11T03:42:50.274Z,14.40
2019-04-11T03:45:25.862Z,16.77
2019-04-11T03:47:52.521Z,15.10
2019-04-11T03:50:15.336Z,15.20
2019-04-11T03:52:40.779Z,15.20
2019-04-11T03:55:11.137Z,17.50
2019-04-11T03:57:41.724Z,15.73
2019-04-11T04:00:14.273Z,20.50
2019-04-11T04:02:42.181Z,18.35
2019-04-11T04:05:13.161Z,18.20
2019-04-11T04:07:44.184Z,17.15
2019-04-11T04:10:19.804Z,15.90
2019-04-11T04:12:48.914Z,16.12
2019-04-11T04:15:55.833Z,16.30
2019-04-11T04:18:48.395Z,16.90
2019-04-11T04:21:31.145Z,19.90
2019-04-11T04:24:03.697Z,17.60
2019-04-11T04:26:33.565Z,17.70
2019-04-11T04:29:04.422Z,19.03
2019-04-11T04:31:34.998Z,19.63
2019-04-11T04:34:04.259Z,17.77
2019-04-11T04:36:34.797Z,19.57
2019-04-11T04:39:05.728Z,23.97
2019-04-11T04:41:44.043Z,19.93
2019-04-11T04:44:08.549Z,18.97
2019-04-11T04:46:52.584Z,23.83
2019-04-11T04:49:11.006Z,18.77
2019-04-11T04:51:41.571Z,21.87
2019-04-11T04:54:12.124Z,18.80
2019-04-11T04:56:43.099Z,23.23
2019-04-11T04:59:14.063Z,25.45
2019-04-11T05:01:44.283Z,23.62
2019-04-11T05:04:15.757Z,22.77
2019-04-11T05:06:48.219Z,22.77
2019-04-11T05:09:15.934Z,22.67
2019-04-11T05:11:46.520Z,23.38
2019-04-11T05:14:15.818Z,22.13
2019-04-11T05:16:46.180Z,24.02
2019-04-11T05:19:15.325Z,23.18
2019-04-11T05:21:45.465Z,24.37
2019-04-11T05:24:14.746Z,25.23
2019-04-11T05:26:44.093Z,22.70
2019-04-11T05:29:13.265Z,25.15
2019-04-11T05:31:42.783Z,23.73
2019-04-11T05:34:11.999Z,23.90
2019-04-11T05:36:41.158Z,25.85
2019-04-11T05:39:10.701Z,24.63
2019-04-11T05:41:43.078Z,23.85
2019-04-11T05:44:11.019Z,26.20
2019-04-11T05:46:49.198Z,24.75
2019-04-11T05:49:21.180Z,23.25
2019-04-11T05:52:02.192Z,22.48
2019-04-11T05:54:38.687Z,23.43
2019-04-11T05:57:07.137Z,23.27
2019-04-11T05:59:37.063Z,23.95
2019-04-11T06:02:17.088Z,23.05
2019-04-11T06:04:54.894Z,22.15
2019-04-11T06:07:27.305Z,22.62
2019-04-11T06:10:06.028Z,23.75
2019-04-11T06:13:02.937Z,24.00
2019-04-11T06:15:36.277Z,21.20
2019-04-11T06:18:25.214Z,21.02
2019-04-11T06:20:49.361Z,24.63
2019-04-11T06:23:45.573Z,21.42
2019-04-11T06:26:47.046Z,23.30
2019-04-11T06:29:35.156Z,20.92
2019-04-11T06:32:21.763Z,20.40
2019-04-11T06:34:57.732Z,21.52
2019-04-11T06:37:45.908Z,21.37
2019-04-11T06:40:38.964Z,20.82
2019-04-11T06:43:16.989Z,19.42
2019-04-11T06:46:09.017Z,20.68
2019-04-11T06:48:53.923Z,20.45
2019-04-11T06:51:37.815Z,20.00
2019-04-11T06:54:16.972Z,20.30
2019-04-11T06:56:47.743Z,18.45
2019-04-11T06:59:23.945Z,19.12
2019-04-11T07:01:53.214Z,20.40
2019-04-11T07:04:25.837Z,19.05
2019-04-11T07:06:56.139Z,20.50
2019-04-11T07:10:06.740Z,19.23
2019-04-11T07:12:45.584Z,18.57
2019-04-11T07:15:29.402Z,18.00
2019-04-11T07:18:16.221Z,17.48
2019-04-11T07:20:56.860Z,16.40
2019-04-11T07:23:44.686Z,18.07
2019-04-11T07:26:32.971Z,14.63
2019-04-11T07:29:23.943Z,16.57
2019-04-11T07:32:25.715Z,16.02
2019-04-11T07:35:12.987Z,15.10
2019-04-11T07:37:44.741Z,16.65
2019-04-11T07:40:36.649Z,17.12
2019-04-11T07:43:25.177Z,13.87
2019-04-11T07:46:17.056Z,14.58
2019-04-11T07:48:46.911Z,15.18
2019-04-11T07:51:23.918Z,14.20
2019-04-11T07:53:54.625Z,14.45
2019-04-11T07:56:58.698Z,13.20
2019-04-11T08:00:02.222Z,14.30
2019-04-11T08:03:08.497Z,12.40
2019-04-11T08:05:56.600Z,13.40
2019-04-11T08:09:02.800Z,13.28
2019-04-11T08:11:51.911Z,13.03
2019-04-11T08:14:59.327Z,14.40
2019-04-11T08:17:37.598Z,11.85
2019-04-11T08:20:33.223Z,14.25
2019-04-11T08:23:07.584Z,11.65
2019-04-11T08:26:07.410Z,12.47
2019-04-11T08:28:40.696Z,13.78
2019-04-11T08:31:48.689Z,13.00
2019-04-11T08:34:20.237Z,11.65
2019-04-11T08:37:11.607Z,12.53
2019-04-11T08:39:45.018Z,11.75
2019-04-11T08:42:40.676Z,13.38
2019-04-11T08:45:12.335Z,11.25
2019-04-11T08:47:52.140Z,12.88
2019-04-11T08:50:26.075Z,12.43
2019-04-11T08:53:32.959Z,10.72
2019-04-11T08:56:03.945Z,11.22
2019-04-11T08:58:53.750Z,10.68
2019-04-11T09:01:24.322Z,10.23
2019-04-11T09:04:13.601Z,12.00
2019-04-11T09:06:43.036Z,10.50
2019-04-11T09:09:47.500Z,10.68
2019-04-11T09:12:18.405Z,10.85
2019-04-11T09:15:10.732Z,11.83
2019-04-11T09:17:58.981Z,9.05
2019-04-11T09:20:40.041Z,10.43
2019-04-11T09:23:11.408Z,9.90
2019-04-11T09:25:59.658Z,9.78
2019-04-11T09:28:57.685Z,9.73
2019-04-11T09:31:48.679Z,10.25
2019-04-11T09:34:35.678Z,9.60
2019-04-11T09:37:36.007Z,11.73
2019-04-11T09:40:26.296Z,11.93
2019-04-11T09:43:13.078Z,10.80
2019-04-11T09:46:10.391Z,10.75
2019-04-11T09:48:57.819Z,11.63
2019-04-11T09:51:44.609Z,10.30
2019-04-11T09:54:21.093Z,11.40
2019-04-11T09:57:12.186Z,10.82
2019-04-11T09:59:51.763Z,9.68
2019-04-11T10:02:39.642Z,11.05
2019-04-11T10:05:09.560Z,9.70
2019-04-11T10:07:57.883Z,8.50
2019-04-11T10:10:46.591Z,9.13
2019-04-11T10:13:24.944Z,11.77
2019-04-11T10:16:16.295Z,9.53
2019-04-11T10:18:57.692Z,10.00
2019-04-11T10:21:26.926Z,12.10
2019-04-11T10:24:18.888Z,8.50
2019-04-11T10:26:52.029Z,12.57
2019-04-11T10:29:46.309Z,10.60
2019-04-11T10:32:17.031Z,7.03
2019-04-11T10:35:06.044Z,10.77
2019-04-11T10:37:37.937Z,9.90
2019-04-11T10:40:26.321Z,8.97
2019-04-11T10:42:55.985Z,9.83
2019-04-11T10:45:43.393Z,7.70
2019-04-11T10:48:13.875Z,7.23
2019-04-11T10:51:20.651Z,8.73
2019-04-11T10:53:53.748Z,9.37
2019-04-11T10:56:39.140Z,10.97
2019-04-11T10:59:09.130Z,9.87
2019-04-11T11:02:04.512Z,8.70
2019-04-11T11:04:39.485Z,8.57
2019-04-11T11:07:12.877Z,10.43
2019-04-11T11:10:09.217Z,9.57
2019-04-11T11:12:45.551Z,9.97
2019-04-11T11:15:29.106Z,10.97
2019-04-11T11:18:39.921Z,9.47
2019-04-11T11:20:58.452Z,12.07
2019-04-11T11:23:43.488Z,10.77
2019-04-11T11:26:19.762Z,11.60
2019-04-11T11:29:08.598Z,9.70
2019-04-11T11:31:40.871Z,9.50
2019-04-11T11:34:32.648Z,10.30
2019-04-11T11:37:22.883Z,11.13
2019-04-11T11:40:14.618Z,8.17
2019-04-11T11:42:58.761Z,12.40
2019-04-11T11:45:37.386Z,8.77
2019-04-11T11:48:23.121Z,9.40
2019-04-11T11:50:52.862Z,10.57
2019-04-11T11:53:33.048Z,8.03
2019-04-11T11:56:03.115Z,8.97
2019-04-11T11:58:57.792Z,10.00
2019-04-11T12:01:24.070Z,10.83
2019-04-11T12:04:11.352Z,8.77
2019-04-11T12:06:41.148Z,8.27
2019-04-11T12:09:28.710Z,9.23
2019-04-11T12:12:02.596Z,8.90
2019-04-11T12:14:53.839Z,8.90
2019-04-11T12:17:34.781Z,9.77
2019-04-11T12:20:13.396Z,9.93
2019-04-11T12:22:44.362Z,11.65
2019-04-11T12:25:22.911Z,11.25
2019-04-11T12:28:07.675Z,9.33
2019-04-11T12:31:00.561Z,8.97
2019-04-11T12:33:50.506Z,9.28
2019-04-11T12:36:23.007Z,10.10
2019-04-11T12:39:08.434Z,9.17
2019-04-11T12:42:07.376Z,10.55
2019-04-11T12:45:02.377Z,10.78
2019-04-11T12:47:39.318Z,9.43
2019-04-11T12:50:30.318Z,9.40
2019-04-11T12:53:06.009Z,9.50
2019-04-11T12:55:43.006Z,9.28
2019-04-11T12:58:33.264Z,9.38
2019-04-11T13:01:29.601Z,8.60
2019-04-11T13:04:15.577Z,10.05
2019-04-11T13:07:01.319Z,9.18
2019-04-11T13:09:38.793Z,8.88
2019-04-11T13:12:07.546Z,9.48
2019-04-11T13:14:42.332Z,8.75
2019-04-11T13:17:13.299Z,10.38
2019-04-11T13:20:04.547Z,10.05
2019-04-11T13:22:29.251Z,9.95
2019-04-11T13:25:25.660Z,9.40
2019-04-11T13:27:56.628Z,9.03
2019-04-11T13:30:54.046Z,9.55
2019-04-11T13:33:27.027Z,9.65
2019-04-11T13:36:20.178Z,9.45
2019-04-11T13:38:51.578Z,8.80
2019-04-11T13:41:37.231Z,8.37
2019-04-11T13:44:14.192Z,8.40
2019-04-11T13:46:54.058Z,8.93
2019-04-11T13:49:41.161Z,10.67
2019-04-11T13:52:28.316Z,10.13
2019-04-11T13:55:07.712Z,8.73
2019-04-11T13:57:57.689Z,8.37
2019-04-11T14:01:00.375Z,10.27
2019-04-11T14:03:47.610Z,7.87
2019-04-11T14:06:41.572Z,10.23
2019-04-11T14:09:14.519Z,8.33
2019-04-11T14:11:45.904Z,8.30
2019-04-11T14:14:35.745Z,8.40
2019-04-11T14:17:12.018Z,8.78
2019-04-11T14:20:12.157Z,9.17
2019-04-11T14:22:59.563Z,8.63
2019-04-11T14:25:49.698Z,13.18
2019-04-11T14:28:18.055Z,9.40
2019-04-11T14:31:09.237Z,10.18
2019-04-11T14:33:38.628Z,11.95
2019-04-11T14:36:33.523Z,9.35
2019-04-11T14:38:59.167Z,10.85
2019-04-11T14:41:52.131Z,10.70
2019-04-11T14:44:20.326Z,8.68
2019-04-11T14:47:11.298Z,9.55
2019-04-11T14:49:40.835Z,9.43
2019-04-11T14:52:31.070Z,10.40
2019-04-11T14:55:01.442Z,11.33
2019-04-11T14:57:40.395Z,10.30
2019-04-11T15:00:24.261Z,10.93
2019-04-11T15:03:14.168Z,8.83
2019-04-11T15:05:52.039Z,8.13
2019-04-11T15:08:32.901Z,12.70
2019-04-11T15:11:09.674Z,11.53
2019-04-11T15:13:38.218Z,8.93
2019-04-11T15:16:23.131Z,11.13
2019-04-11T15:18:55.878Z,11.07
2019-04-11T15:21:49.320Z,9.07
2019-04-11T15:24:18.333Z,11.27
2019-04-11T15:27:11.590Z,10.17
2019-04-11T15:29:40.693Z,10.10
2019-04-11T15:32:25.100Z,9.37
2019-04-11T15:34:55.770Z,11.23
2019-04-11T15:37:48.935Z,10.80
2019-04-11T15:40:32.547Z,8.57
2019-04-11T15:43:42.084Z,7.97
2019-04-11T15:46:27.206Z,33.97
2019-04-11T15:49:20.931Z,42.50
2019-04-11T15:51:46.243Z,24.83
2019-04-11T15:54:34.799Z,8.47
2019-04-11T15:57:12.711Z,8.20
2019-04-11T16:00:00.543Z,11.37
2019-04-11T16:02:57.032Z,6.83
2019-04-11T16:05:50.336Z,9.70
2019-04-11T16:08:46.908Z,8.13
2019-04-11T16:11:42.963Z,8.10
2019-04-11T16:14:29.023Z,8.93
2019-04-11T16:17:25.067Z,9.07
2019-04-11T16:20:11.093Z,10.00
2019-04-11T16:23:01.039Z,9.00
2019-04-11T16:25:29.799Z,9.47
2019-04-11T16:28:29.068Z,8.20
2019-04-11T16:30:58.714Z,8.00
2019-04-11T16:33:46.144Z,7.77
2019-04-11T16:36:20.532Z,9.77
2019-04-11T16:39:19.487Z,7.93
2019-04-11T16:42:10.413Z,7.17
2019-04-11T16:44:56.360Z,10.23
2019-04-11T16:47:42.200Z,8.93
2019-04-11T16:50:10.427Z,8.07
2019-04-11T16:52:39.212Z,6.73
2019-04-11T16:55:10.031Z,8.13
2019-04-11T16:57:37.601Z,7.37
2019-04-11T17:00:09.030Z,9.03
2019-04-11T17:02:37.049Z,9.07
2019-04-11T17:05:06.321Z,9.03
2019-04-11T17:07:53.893Z,7.60
2019-04-11T17:10:42.310Z,9.10
2019-04-11T17:13:10.712Z,8.13
2019-04-11T17:15:38.827Z,6.47
2019-04-11T17:18:06.900Z,13.47
2019-04-11T17:20:36.178Z,7.33
2019-04-11T17:23:04.949Z,7.47
2019-04-11T17:25:33.035Z,6.67
2019-04-11T17:28:01.130Z,10.87
2019-04-11T17:30:29.332Z,7.70
2019-04-11T17:32:57.489Z,6.47
2019-04-11T17:35:25.970Z,7.67
2019-04-11T17:37:54.060Z,7.13
2019-04-11T17:40:22.116Z,8.13
2019-04-11T17:42:50.223Z,7.35
2019-04-11T17:45:18.297Z,6.73
2019-04-11T18:00:05.155Z,7.10
2019-04-11T18:02:33.279Z,6.67
2019-04-11T18:07:28.440Z,6.30
2019-04-11T18:09:56.756Z,8.25
2019-04-11T18:12:26.197Z,7.47
2019-04-11T18:14:54.637Z,9.00
2019-04-11T18:17:22.741Z,7.70
2019-04-11T18:19:50.821Z,10.00
2019-04-11T18:22:18.964Z,8.80
2019-04-11T18:24:49.922Z,8.37
2019-04-11T18:27:17.094Z,9.30
2019-04-11T18:29:45.560Z,7.97
2019-04-11T18:32:13.702Z,6.50
2019-04-11T18:34:41.845Z,7.13
2019-04-11T18:37:10.044Z,9.10
2019-04-11T18:39:38.186Z,8.18
2019-04-11T18:42:06.691Z,7.95
2019-04-11T18:44:34.889Z,8.75
2019-04-11T18:47:03.195Z,8.83
2019-04-11T18:49:31.944Z,9.25
2019-04-11T18:52:00.696Z,7.78
2019-04-11T18:54:28.842Z,7.22
2019-04-11T18:56:57.093Z,6.87
2019-04-11T18:59:25.302Z,7.97
2019-04-11T19:01:53.892Z,7.80
2019-04-11T19:04:31.800Z,7.67
2019-04-11T19:06:52.076Z,7.70
2019-04-11T19:09:20.581Z,6.25
2019-04-11T19:11:51.432Z,7.28
2019-04-11T19:14:19.709Z,8.13
2019-04-11T19:16:48.338Z,6.45
2019-04-11T19:19:18.334Z,6.53
2019-04-11T19:21:50.721Z,7.63
2019-04-11T19:24:16.811Z,7.55
2019-04-11T19:26:46.422Z,7.12
2019-04-11T19:29:17.434Z,7.12
2019-04-11T19:31:45.657Z,6.67
2019-04-11T19:34:15.232Z,5.92
2019-04-11T19:36:43.497Z,6.30
2019-04-11T19:39:13.885Z,7.10
2019-04-11T19:41:41.571Z,6.53
2019-04-11T19:44:09.782Z,5.30
2019-04-11T19:46:37.921Z,5.72
2019-04-11T19:49:06.226Z,5.87
2019-04-11T19:51:34.529Z,6.33
2019-04-11T19:54:04.055Z,6.05
2019-04-11T19:56:36.931Z,5.72
2019-04-11T19:59:05.529Z,5.37
2019-04-11T20:01:33.750Z,5.70
2019-04-11T20:04:01.878Z,7.00
2019-04-11T20:06:30.040Z,6.87
2019-04-11T20:08:58.241Z,6.05
2019-04-11T20:11:26.428Z,7.85
2019-04-11T20:13:54.537Z,6.12
2019-04-11T20:16:22.701Z,7.12
2019-04-11T20:18:51.704Z,7.25
2019-04-11T20:21:20.910Z,6.55
2019-04-11T20:23:49.033Z,6.42
2019-04-11T20:26:20.098Z,6.53
2019-04-11T20:28:48.209Z,7.37
2019-04-11T20:31:17.083Z,8.45
2019-04-11T20:33:45.205Z,6.42
2019-04-11T20:36:13.370Z,7.75
2019-04-11T20:38:41.502Z,6.10
2019-04-11T20:41:09.792Z,6.65
2019-04-11T20:43:39.068Z,5.55
2019-04-11T20:46:07.235Z,8.00
2019-04-11T20:48:36.507Z,7.10
2019-04-11T20:51:05.887Z,7.92
2019-04-11T20:53:37.539Z,8.13
2019-04-11T20:56:04.954Z,6.80
2019-04-11T20:58:34.476Z,6.42
2019-04-11T21:01:03.109Z,8.08
2019-04-11T21:03:31.184Z,6.10
2019-04-11T21:06:01.737Z,7.97
2019-04-11T21:08:32.873Z,6.60
2019-04-11T21:10:58.930Z,7.95
2019-04-11T21:13:27.008Z,5.47
2019-04-11T21:15:55.133Z,9.28
2019-04-11T21:18:25.676Z,7.10
2019-04-11T21:20:55.180Z,8.75
2019-04-11T21:23:24.610Z,5.30
2019-04-11T21:25:52.630Z,6.55
2019-04-11T21:28:20.689Z,5.35
2019-04-11T21:30:48.784Z,6.73
2019-04-11T21:33:16.873Z,6.37
2019-04-11T21:35:44.961Z,6.77
2019-04-11T21:38:13.078Z,5.33
2019-04-11T21:40:41.145Z,5.25
2019-04-11T21:43:09.257Z,5.60
2019-04-11T21:45:37.348Z,6.50
2019-04-11T21:48:06.570Z,5.30
2019-04-11T21:50:35.074Z,6.85
2019-04-11T21:53:03.170Z,5.90
2019-04-11T21:55:31.271Z,4.87
2019-04-11T21:57:59.518Z,6.47
2019-04-11T22:00:36.112Z,5.70
2019-04-11T22:03:06.602Z,5.87
2019-04-11T22:05:33.980Z,4.78
2019-04-11T22:08:03.708Z,5.35
2019-04-11T22:10:32.367Z,4.95
2019-04-11T22:13:00.423Z,5.42
2019-04-11T22:15:28.620Z,5.40
2019-04-11T22:17:56.736Z,5.67
2019-04-11T22:20:24.857Z,4.67
2019-04-11T22:22:53.015Z,4.70
2019-04-11T22:25:21.166Z,4.97
2019-04-11T22:27:51.075Z,5.23
2019-04-11T22:30:20.613Z,5.65
2019-04-11T22:32:55.065Z,4.80
2019-04-11T22:35:28.767Z,5.70
2019-04-11T22:37:54.609Z,4.72
2019-04-11T22:40:25.820Z,5.97
2019-04-11T22:42:53.962Z,5.35
2019-04-11T22:45:22.017Z,5.53
2019-04-11T22:47:50.086Z,5.65
2019-04-11T22:50:18.259Z,5.35
2019-04-11T22:52:46.375Z,5.35
2019-04-11T22:55:14.676Z,6.20
2019-04-11T22:57:43.694Z,4.30
2019-04-11T23:00:14.897Z,6.15
2019-04-11T23:03:04.235Z,4.78
2019-04-11T23:05:32.970Z,5.30
2019-04-11T23:08:02.890Z,5.37
2019-04-11T23:10:31.023Z,4.87
2019-04-11T23:12:59.150Z,5.28
2019-04-11T23:15:27.229Z,4.60
2019-04-11T23:17:55.441Z,4.92
2019-04-11T23:20:23.535Z,4.58
2019-04-11T23:22:51.846Z,4.22
2019-04-11T23:25:19.946Z,5.28
2019-04-11T23:27:48.027Z,5.00
2019-04-11T23:30:18.331Z,5.03
2019-04-11T23:32:50.857Z,6.10
2019-04-11T23:35:16.752Z,4.87
2019-04-11T23:37:51.979Z,4.80
2019-04-11T23:40:21.683Z,5.08
2019-04-11T23:42:50.770Z,5.90
2019-04-11T23:45:21.773Z,4.90
2019-04-11T23:47:53.211Z,5.12
2019-04-11T23:50:19.705Z,4.47
2019-04-11T23:52:47.979Z,4.35
2019-04-11T23:55:16.101Z,4.90
2019-04-11T23:57:44.301Z,5.23
